Time;durP1;ratioP1;P1;durP2;ratioP2;P2;SDS_P1;SDS_P2;PMS_P1;PMS_P2;Temp;Humidity;BMP_temperature;BMP_pressure;BME280_temperature;BME280_humidity;BME280_pressure;Samples;Min_cycle;Max_cycle;Signal;HPM_P1;HPM_P2
2022/08/06 00:02:14;;;;;;;2.90;2.27;;;;;;;;;;5093504;28;20531;-64
2022/08/06 00:04:41;;;;;;;2.60;2.40;;;;;;;;;;5093546;28;20492;-64
2022/08/06 00:07:08;;;;;;;6.03;2.37;;;;;;;;;;5093425;28;20446;-64
2022/08/06 00:09:36;;;;;;;2.43;2.17;;;;;;;;;;5093573;28;20700;-64
2022/08/06 00:12:04;;;;;;;2.97;2.23;;;;;;;;;;5093442;28;20443;-64
2022/08/06 00:14:32;;;;;;;3.73;2.47;;;;;;;;;;5093188;28;20526;-64
2022/08/06 00:17:01;;;;;;;2.47;2.27;;;;;;;;;;5093374;28;20506;-64
2022/08/06 00:19:28;;;;;;;3.77;2.17;;;;;;;;;;5096637;28;20451;-64
2022/08/06 00:21:55;;;;;;;4.50;2.40;;;;;;;;;;5097209;28;20490;-64
2022/08/06 00:24:23;;;;;;;4.80;2.47;;;;;;;;;;5097963;28;20991;-64
2022/08/06 00:26:50;;;;;;;4.37;2.63;;;;;;;;;;5097524;28;20448;-64
2022/08/06 00:29:17;;;;;;;5.00;2.77;;;;;;;;;;5097478;28;20447;-64
2022/08/06 00:31:44;;;;;;;5.80;2.27;;;;;;;;;;5097412;28;20872;-64
2022/08/06 00:34:13;;;;;;;3.57;2.30;;;;;;;;;;5097822;28;20435;-64
2022/08/06 00:36:40;;;;;;;3.10;2.30;;;;;;;;;;5097114;28;20526;-64
2022/08/06 00:39:08;;;;;;;2.70;2.30;;;;;;;;;;5097758;28;20449;-64
2022/08/06 00:41:36;;;;;;;5.03;2.43;;;;;;;;;;5097152;28;20451;-63
2022/08/06 00:44:03;;;;;;;2.63;2.20;;;;;;;;;;5096839;28;20534;-64
2022/08/06 00:46:30;;;;;;;3.50;2.57;;;;;;;;;;5096991;28;20547;-64
2022/08/06 00:48:58;;;;;;;4.50;2.87;;;;;;;;;;5097007;28;20443;-64
2022/08/06 00:51:26;;;;;;;5.23;2.47;;;;;;;;;;5096852;28;20435;-64
2022/08/06 00:53:54;;;;;;;3.30;2.40;;;;;;;;;;5097413;28;20447;-65
2022/08/06 00:56:21;;;;;;;3.17;2.63;;;;;;;;;;5096469;28;20483;-64
2022/08/06 00:58:48;;;;;;;7.30;3.60;;;;;;;;;;5096750;28;20816;-64
2022/08/06 01:01:16;;;;;;;4.53;2.73;;;;;;;;;;5096921;28;20533;-65
2022/08/06 01:03:43;;;;;;;3.63;2.70;;;;;;;;;;5097254;28;20530;-64
2022/08/06 01:06:10;;;;;;;4.93;2.93;;;;;;;;;;5096370;28;20534;-64
2022/08/06 01:08:39;;;;;;;3.43;2.80;;;;;;;;;;5096467;28;20963;-64
2022/08/06 01:11:06;;;;;;;6.93;3.30;;;;;;;;;;5096308;28;20531;-63
2022/08/06 01:13:33;;;;;;;4.10;3.20;;;;;;;;;;5096495;28;20450;-64
2022/08/06 01:16:07;;;;;;;3.33;3.07;;;;;;;;;;5096394;28;20551;-64
2022/08/06 01:18:38;;;;;;;3.10;2.83;;;;;;;;;;5096335;28;20501;-64
2022/08/06 01:21:11;;;;;;;3.00;2.80;;;;;;;;;;5096724;28;20510;-64
2022/08/06 01:23:49;;;;;;;6.10;2.93;;;;;;;;;;5096141;28;20466;-64
2022/08/06 01:26:29;;;;;;;7.20;2.93;;;;;;;;;;5096384;28;20424;-64
2022/08/06 01:29:00;;;;;;;3.60;3.10;;;;;;;;;;5096041;28;20581;-64
2022/08/06 01:31:30;;;;;;;3.37;3.07;;;;;;;;;;5096484;28;20439;-64
2022/08/06 01:34:00;;;;;;;3.57;3.27;;;;;;;;;;5096078;28;20443;-64
2022/08/06 01:36:31;;;;;;;3.70;3.13;;;;;;;;;;5096789;28;20431;-64
2022/08/06 01:38:59;;;;;;;4.00;3.30;;;;;;;;;;5095940;28;20563;-64
2022/08/06 01:41:40;;;;;;;3.17;2.83;;;;;;;;;;5095965;28;20933;-64
2022/08/06 01:44:09;;;;;;;3.90;3.20;;;;;;;;;;5096226;28;20522;-64
2022/08/06 01:46:37;;;;;;;8.10;3.27;;;;;;;;;;5096439;28;20474;-64
2022/08/06 01:49:05;;;;;;;4.47;3.60;;;;;;;;;;5095868;28;20526;-64
2022/08/06 01:51:33;;;;;;;4.90;3.27;;;;;;;;;;5095793;28;20448;-64
2022/08/06 01:54:01;;;;;;;4.47;3.80;;;;;;;;;;5095262;28;20952;-64
2022/08/06 01:56:29;;;;;;;5.50;3.17;;;;;;;;;;5096150;28;20442;-64
2022/08/06 01:58:57;;;;;;;5.70;3.80;;;;;;;;;;5095645;28;20481;-64
2022/08/06 02:01:26;;;;;;;7.13;3.90;;;;;;;;;;5095692;28;20442;-64
2022/08/06 02:03:56;;;;;;;5.43;3.37;;;;;;;;;;5095239;28;20435;-64
2022/08/06 02:06:26;;;;;;;7.30;3.80;;;;;;;;;;5095595;28;20530;-64
2022/08/06 02:08:54;;;;;;;4.03;3.27;;;;;;;;;;5095483;28;20847;-64
2022/08/06 02:11:21;;;;;;;5.80;3.90;;;;;;;;;;5095982;28;20441;-64
2022/08/06 02:13:50;;;;;;;5.73;3.73;;;;;;;;;;5094993;28;20527;-64
2022/08/06 02:16:17;;;;;;;3.43;3.23;;;;;;;;;;5095059;28;20471;-64
2022/08/06 02:18:47;;;;;;;3.83;3.17;;;;;;;;;;5095043;28;20563;-64
2022/08/06 02:21:16;;;;;;;8.83;3.30;;;;;;;;;;5095751;28;20442;-64
2022/08/06 02:23:44;;;;;;;4.83;3.70;;;;;;;;;;5095406;28;20479;-63
2022/08/06 02:26:13;;;;;;;8.97;3.47;;;;;;;;;;5094833;28;20444;-64
2022/08/06 02:28:41;;;;;;;5.20;3.50;;;;;;;;;;5094998;28;20439;-63
2022/08/06 02:31:08;;;;;;;4.13;3.60;;;;;;;;;;5094787;28;20444;-63
2022/08/06 02:33:35;;;;;;;4.57;3.47;;;;;;;;;;5094975;28;20444;-64
2022/08/06 02:36:06;;;;;;;5.97;3.27;;;;;;;;;;5094654;28;20531;-63
2022/08/06 02:38:37;;;;;;;4.00;3.70;;;;;;;;;;5094884;28;20887;-64
2022/08/06 02:41:09;;;;;;;6.23;3.80;;;;;;;;;;5093903;28;20424;-64
2022/08/06 02:43:38;;;;;;;8.37;3.57;;;;;;;;;;5094865;28;20424;-64
2022/08/06 02:46:11;;;;;;;3.80;3.40;;;;;;;;;;5094723;28;21048;-64
2022/08/06 02:48:42;;;;;;;4.30;3.67;;;;;;;;;;5095008;28;20448;-64
2022/08/06 02:51:14;;;;;;;6.30;3.20;;;;;;;;;;5094443;28;20459;-63
2022/08/06 02:53:44;;;;;;;8.00;3.83;;;;;;;;;;5094723;28;20479;-64
2022/08/06 02:56:13;;;;;;;7.10;3.27;;;;;;;;;;5094524;28;20526;-63
2022/08/06 02:58:41;;;;;;;4.60;3.43;;;;;;;;;;5094404;28;20475;-63
2022/08/06 03:01:10;;;;;;;3.77;3.03;;;;;;;;;;5094162;28;20458;-63
2022/08/06 03:03:38;;;;;;;5.93;3.50;;;;;;;;;;5094043;28;20518;-64
2022/08/06 03:06:07;;;;;;;6.70;3.50;;;;;;;;;;5094575;28;20523;-64
2022/08/06 03:08:36;;;;;;;4.23;3.83;;;;;;;;;;5094281;28;20932;-64
2022/08/06 03:11:05;;;;;;;9.33;3.73;;;;;;;;;;5094610;28;20516;-64
2022/08/06 03:13:33;;;;;;;5.87;3.17;;;;;;;;;;5094370;28;20542;-64
2022/08/06 03:16:02;;;;;;;4.43;3.63;;;;;;;;;;5093961;28;20471;-64
2022/08/06 03:18:29;;;;;;;4.40;4.00;;;;;;;;;;5093867;28;20459;-63
2022/08/06 03:20:57;;;;;;;3.90;3.20;;;;;;;;;;5094417;28;20531;-65
2022/08/06 03:23:24;;;;;;;8.70;4.13;;;;;;;;;;5094605;28;20458;-64
2022/08/06 03:25:53;;;;;;;7.57;4.50;;;;;;;;;;5093793;28;21007;-64
2022/08/06 03:28:21;;;;;;;4.03;3.20;;;;;;;;;;5093933;28;20455;-64
2022/08/06 03:30:49;;;;;;;6.30;3.30;;;;;;;;;;5093512;28;20818;-64
2022/08/06 03:33:17;;;;;;;5.23;3.53;;;;;;;;;;5093563;28;20526;-64
2022/08/06 03:35:45;;;;;;;5.70;3.60;;;;;;;;;;5093779;28;20937;-64
2022/08/06 03:38:12;;;;;;;4.73;3.60;;;;;;;;;;5093814;28;20213;-64
2022/08/06 03:40:41;;;;;;;5.00;3.40;;;;;;;;;;5093402;28;20431;-64
2022/08/06 03:43:10;;;;;;;4.33;3.60;;;;;;;;;;5093449;28;20535;-64
2022/08/06 03:45:38;;;;;;;8.63;3.80;;;;;;;;;;5093317;28;20534;-64
2022/08/06 03:48:07;;;;;;;7.37;4.30;;;;;;;;;;5093718;28;20447;-64
2022/08/06 03:50:36;;;;;;;4.60;4.20;;;;;;;;;;5093654;28;20522;-64
2022/08/06 03:53:05;;;;;;;5.23;4.20;;;;;;;;;;5093826;28;20444;-64
2022/08/06 03:55:33;;;;;;;4.30;3.50;;;;;;;;;;5093677;28;20451;-64
2022/08/06 03:58:02;;;;;;;4.80;4.30;;;;;;;;;;5092429;28;20987;-64
2022/08/06 04:00:34;;;;;;;4.53;4.13;;;;;;;;;;5092496;28;20475;-64
2022/08/06 04:03:03;;;;;;;8.60;4.03;;;;;;;;;;5093068;28;20435;-64
2022/08/06 04:05:30;;;;;;;6.63;4.37;;;;;;;;;;5093071;28;20489;-64
2022/08/06 04:07:59;;;;;;;6.17;4.27;;;;;;;;;;5092670;28;20445;-64
2022/08/06 04:10:26;;;;;;;5.00;4.03;;;;;;;;;;5092910;28;20443;-64
2022/08/06 04:12:54;;;;;;;4.20;3.90;;;;;;;;;;5093179;28;20468;-64
2022/08/06 04:15:22;;;;;;;5.57;4.80;;;;;;;;;;5093129;28;20526;-64
2022/08/06 04:17:51;;;;;;;9.80;4.90;;;;;;;;;;5093069;28;20555;-64
2022/08/06 04:20:21;;;;;;;4.60;4.20;;;;;;;;;;5093025;28;20493;-63
2022/08/06 04:22:49;;;;;;;8.53;4.40;;;;;;;;;;5093425;28;20518;-64
2022/08/06 04:25:16;;;;;;;4.95;4.55;;;;;;;;;;5093015;28;20523;-64
2022/08/06 04:27:44;;;;;;;4.97;4.03;;;;;;;;;;5092813;28;20186;-64
2022/08/06 04:30:12;;;;;;;4.60;4.20;;;;;;;;;;5093468;28;20531;-64
2022/08/06 04:32:39;;;;;;;7.33;4.63;;;;;;;;;;5093492;28;20561;-63
2022/08/06 04:35:10;;;;;;;4.13;3.80;;;;;;;;;;5092898;28;20478;-64
2022/08/06 04:37:37;;;;;;;4.13;3.83;;;;;;;;;;5092961;28;20519;-64
2022/08/06 04:40:07;;;;;;;5.10;4.60;;;;;;;;;;5093055;28;20526;-64
2022/08/06 04:42:34;;;;;;;5.27;4.30;;;;;;;;;;5092913;28;20518;-63
2022/08/06 04:45:02;;;;;;;6.07;4.37;;;;;;;;;;5092819;28;20947;-63
2022/08/06 04:47:31;;;;;;;5.80;4.70;;;;;;;;;;5092719;28;20431;-63
2022/08/06 04:49:58;;;;;;;8.20;4.40;;;;;;;;;;5093075;28;20448;-64
2022/08/06 04:52:28;;;;;;;6.17;4.80;;;;;;;;;;5093131;28;20442;-63
2022/08/06 04:54:55;;;;;;;7.50;4.23;;;;;;;;;;5093425;28;20501;-63
2022/08/06 04:57:23;;;;;;;11.83;4.93;;;;;;;;;;5092967;28;20523;-64
2022/08/06 04:59:50;;;;;;;4.70;4.40;;;;;;;;;;5092855;28;20471;-64
2022/08/06 05:02:17;;;;;;;4.50;3.73;;;;;;;;;;5093014;28;20530;-63
2022/08/06 05:04:45;;;;;;;5.30;4.40;;;;;;;;;;5094400;28;20530;-64
2022/08/06 05:07:15;;;;;;;6.57;4.60;;;;;;;;;;5096193;28;20479;-63
2022/08/06 05:09:44;;;;;;;10.63;4.20;;;;;;;;;;5097282;28;20440;-64
2022/08/06 05:12:16;;;;;;;4.40;4.10;;;;;;;;;;5096242;28;20440;-64
2022/08/06 05:14:47;;;;;;;5.43;3.87;;;;;;;;;;5096844;28;20511;-64
2022/08/06 05:17:16;;;;;;;3.90;3.60;;;;;;;;;;5097113;28;20550;-63
2022/08/06 05:19:45;;;;;;;3.80;3.57;;;;;;;;;;5096321;28;20562;-64
2022/08/06 05:22:15;;;;;;;5.83;3.50;;;;;;;;;;5096523;28;20859;-63
2022/08/06 05:24:44;;;;;;;5.47;3.60;;;;;;;;;;5096293;28;20531;-64
2022/08/06 05:27:11;;;;;;;4.53;3.80;;;;;;;;;;5096208;28;20450;-64
2022/08/06 05:29:38;;;;;;;5.87;3.60;;;;;;;;;;5096216;28;20866;-64
2022/08/06 05:32:06;;;;;;;3.80;3.40;;;;;;;;;;5096235;28;20837;-64
2022/08/06 05:34:33;;;;;;;5.10;3.50;;;;;;;;;;5096470;28;20446;-64
2022/08/06 05:37:01;;;;;;;4.30;4.00;;;;;;;;;;5095804;28;20534;-63
2022/08/06 05:39:28;;;;;;;9.37;3.70;;;;;;;;;;5095692;28;20478;-64
2022/08/06 05:41:57;;;;;;;5.77;3.10;;;;;;;;;;5096044;28;20446;-64
2022/08/06 05:44:24;;;;;;;4.43;4.03;;;;;;;;;;5096094;28;20522;-64
2022/08/06 05:46:53;;;;;;;5.07;3.37;;;;;;;;;;5095863;28;20539;-63
2022/08/06 05:49:23;;;;;;;4.17;3.20;;;;;;;;;;5096406;28;20440;-63
2022/08/06 05:51:53;;;;;;;4.37;3.03;;;;;;;;;;5095742;28;20534;-64
2022/08/06 05:54:23;;;;;;;3.23;2.63;;;;;;;;;;5095793;28;20444;-64
2022/08/06 05:56:52;;;;;;;4.97;3.40;;;;;;;;;;5095938;28;20446;-64
2022/08/06 05:59:22;;;;;;;3.40;3.20;;;;;;;;;;5095391;28;21063;-64
2022/08/06 06:01:50;;;;;;;3.37;3.03;;;;;;;;;;5095392;28;20467;-64
2022/08/06 06:04:17;;;;;;;3.27;2.97;;;;;;;;;;5096206;28;20449;-64
2022/08/06 06:06:45;;;;;;;4.00;2.77;;;;;;;;;;5095801;28;20440;-64
2022/08/06 06:09:13;;;;;;;3.20;2.60;;;;;;;;;;5095483;28;20533;-64
2022/08/06 06:11:41;;;;;;;3.53;3.13;;;;;;;;;;5095324;28;20447;-64
2022/08/06 06:14:14;;;;;;;4.40;3.00;;;;;;;;;;5095649;28;20445;-64
2022/08/06 06:16:50;;;;;;;2.60;2.40;;;;;;;;;;5094244;28;20562;-64
2022/08/06 06:19:21;;;;;;;2.47;2.20;;;;;;;;;;5095500;28;20471;-63
2022/08/06 06:22:01;;;;;;;3.43;2.50;;;;;;;;;;5095476;28;20432;-63
2022/08/06 06:24:31;;;;;;;5.10;2.07;;;;;;;;;;5095526;28;20486;-63
2022/08/06 06:27:01;;;;;;;3.30;2.40;;;;;;;;;;5095241;28;20452;-63
2022/08/06 06:29:34;;;;;;;8.90;2.20;;;;;;;;;;5095485;28;20490;-63
2022/08/06 06:32:06;;;;;;;2.00;1.80;;;;;;;;;;5095171;28;20503;-64
2022/08/06 06:34:39;;;;;;;1.70;1.60;;;;;;;;;;5095331;28;20812;-64
2022/08/06 06:37:10;;;;;;;2.80;1.77;;;;;;;;;;5094664;28;20435;-63
2022/08/06 06:39:39;;;;;;;2.67;2.00;;;;;;;;;;5095231;28;20824;-63
2022/08/06 06:42:09;;;;;;;5.37;1.70;;;;;;;;;;5094241;28;20483;-64
2022/08/06 06:44:39;;;;;;;4.27;2.27;;;;;;;;;;5094758;28;20447;-64
2022/08/06 06:47:12;;;;;;;2.63;2.10;;;;;;;;;;5094669;28;20462;-64
2022/08/06 06:49:42;;;;;;;3.70;2.13;;;;;;;;;;5094797;28;20439;-64
2022/08/06 06:52:11;;;;;;;9.13;2.30;;;;;;;;;;5094854;28;20513;-64
2022/08/06 06:54:43;;;;;;;3.30;1.50;;;;;;;;;;5095262;28;20884;-64
2022/08/06 06:57:12;;;;;;;2.10;1.70;;;;;;;;;;5094634;28;20793;-64
2022/08/06 06:59:43;;;;;;;2.90;1.87;;;;;;;;;;5094344;28;20479;-64
2022/08/06 07:02:16;;;;;;;3.53;1.30;;;;;;;;;;5094019;28;20433;-64
2022/08/06 07:04:44;;;;;;;2.60;1.47;;;;;;;;;;5094533;28;20470;-64
2022/08/06 07:07:11;;;;;;;2.30;1.30;;;;;;;;;;5094451;28;20446;-64
2022/08/06 07:09:39;;;;;;;2.60;1.80;;;;;;;;;;5094380;28;20808;-64
2022/08/06 07:12:08;;;;;;;1.43;1.30;;;;;;;;;;5094199;28;20447;-64
2022/08/06 07:14:37;;;;;;;4.40;2.13;;;;;;;;;;5094704;28;20443;-64
2022/08/06 07:17:05;;;;;;;4.30;1.70;;;;;;;;;;5093919;28;20480;-64
2022/08/06 07:19:33;;;;;;;6.67;2.50;;;;;;;;;;5094133;28;20480;-64
2022/08/06 07:22:01;;;;;;;1.87;1.30;;;;;;;;;;5093645;28;20535;-64
2022/08/06 07:24:30;;;;;;;4.17;1.37;;;;;;;;;;5093806;28;20951;-64
2022/08/06 07:26:58;;;;;;;1.30;1.13;;;;;;;;;;5093698;28;20862;-64
2022/08/06 07:29:27;;;;;;;1.10;1.00;;;;;;;;;;5094603;28;20443;-63
2022/08/06 07:31:56;;;;;;;1.23;1.13;;;;;;;;;;5094092;28;20567;-64
2022/08/06 07:34:24;;;;;;;1.20;1.20;;;;;;;;;;5094008;28;20440;-63
2022/08/06 07:36:54;;;;;;;1.40;1.10;;;;;;;;;;5093482;28;20440;-64
2022/08/06 07:39:24;;;;;;;1.93;1.13;;;;;;;;;;5093784;28;20487;-63
2022/08/06 07:41:52;;;;;;;2.50;1.30;;;;;;;;;;5093493;28;20523;-64
2022/08/06 07:44:21;;;;;;;1.67;1.30;;;;;;;;;;5094009;28;20450;-64
2022/08/06 07:46:50;;;;;;;2.23;1.37;;;;;;;;;;5093353;28;21066;-64
2022/08/06 07:49:19;;;;;;;2.43;1.27;;;;;;;;;;5093708;28;20447;-63
2022/08/06 07:51:48;;;;;;;1.93;1.10;;;;;;;;;;5093725;28;20933;-64
2022/08/06 07:54:17;;;;;;;1.23;1.13;;;;;;;;;;5093707;28;20909;-64
2022/08/06 07:56:44;;;;;;;1.40;1.23;;;;;;;;;;5093596;28;20443;-64
2022/08/06 07:59:12;;;;;;;4.40;1.20;;;;;;;;;;5093241;28;20566;-64
2022/08/06 08:01:40;;;;;;;1.60;1.10;;;;;;;;;;5093027;28;21021;-64
2022/08/06 08:06:53;;;;;;;4.97;1.63;;;;;;;;;;5093532;28;20415;-64
2022/08/06 08:09:23;;;;;;;2.20;1.20;;;;;;;;;;5093506;28;20454;-64
2022/08/06 08:11:51;;;;;;;2.03;1.10;;;;;;;;;;5093458;28;20428;-64
2022/08/06 08:14:20;;;;;;;3.17;1.40;;;;;;;;;;5093462;28;20443;-63
2022/08/06 08:16:47;;;;;;;4.50;1.67;;;;;;;;;;5093034;28;20562;-63
2022/08/06 08:19:22;;;;;;;4.17;1.63;;;;;;;;;;5092869;28;20480;-64
2022/08/06 08:21:50;;;;;;;2.17;1.30;;;;;;;;;;5093270;28;20447;-63
2022/08/06 08:24:17;;;;;;;2.20;1.30;;;;;;;;;;5093632;28;20460;-64
2022/08/06 08:26:46;;;;;;;1.10;1.00;;;;;;;;;;5093388;28;20524;-64
2022/08/06 08:29:13;;;;;;;1.30;1.20;;;;;;;;;;5093297;28;20440;-63
2022/08/06 08:31:40;;;;;;;1.63;1.23;;;;;;;;;;5093372;28;20442;-64
2022/08/06 08:34:07;;;;;;;1.47;1.20;;;;;;;;;;5093291;28;20440;-63
2022/08/06 08:36:35;;;;;;;3.50;1.43;;;;;;;;;;5093286;28;20442;-64
2022/08/06 08:39:02;;;;;;;1.37;1.03;;;;;;;;;;5093837;28;20447;-63
2022/08/06 08:41:33;;;;;;;3.40;1.20;;;;;;;;;;5097137;28;20520;-64
2022/08/06 08:44:03;;;;;;;2.10;1.10;;;;;;;;;;5097222;28;20508;-64
2022/08/06 08:46:33;;;;;;;2.57;1.40;;;;;;;;;;5097623;28;20799;-63
2022/08/06 08:49:03;;;;;;;1.40;1.10;;;;;;;;;;5096942;28;20439;-64
2022/08/06 08:51:32;;;;;;;1.40;1.30;;;;;;;;;;5097824;28;20432;-63
2022/08/06 08:54:01;;;;;;;1.00;1.00;;;;;;;;;;5097143;28;20474;-64
2022/08/06 08:56:28;;;;;;;2.10;1.20;;;;;;;;;;5096581;28;20452;-63
2022/08/06 08:58:55;;;;;;;1.40;1.30;;;;;;;;;;5096507;28;20539;-64
2022/08/06 09:01:24;;;;;;;1.27;1.17;;;;;;;;;;5096347;28;20566;-64
2022/08/06 09:03:52;;;;;;;1.23;1.13;;;;;;;;;;5096378;28;20444;-63
2022/08/06 09:06:20;;;;;;;1.47;1.23;;;;;;;;;;5096758;28;20462;-63
2022/08/06 09:08:47;;;;;;;1.17;0.97;;;;;;;;;;5096592;28;20438;-64
2022/08/06 09:11:15;;;;;;;1.20;1.10;;;;;;;;;;5096354;28;20447;-63
2022/08/06 09:13:42;;;;;;;2.00;1.20;;;;;;;;;;5096644;28;20812;-64
2022/08/06 09:16:10;;;;;;;4.60;1.27;;;;;;;;;;5096363;28;20475;-64
2022/08/06 09:18:38;;;;;;;1.43;1.33;;;;;;;;;;5096448;28;20436;-64
2022/08/06 09:21:05;;;;;;;2.30;1.30;;;;;;;;;;5096458;28;20478;-63
2022/08/06 09:23:33;;;;;;;1.23;1.13;;;;;;;;;;5096152;28;20929;-64
2022/08/06 09:26:05;;;;;;;1.40;1.30;;;;;;;;;;5096347;28;20443;-63
2022/08/06 09:28:35;;;;;;;1.47;1.20;;;;;;;;;;5096630;28;20460;-64
2022/08/06 09:31:04;;;;;;;1.40;1.30;;;;;;;;;;5096606;28;20449;-64
2022/08/06 09:33:31;;;;;;;1.00;1.00;;;;;;;;;;5096202;28;20440;-64
2022/08/06 09:36:01;;;;;;;1.63;1.20;;;;;;;;;;5096346;28;20485;-64
2022/08/06 09:38:29;;;;;;;1.30;1.20;;;;;;;;;;5096348;28;20548;-64
2022/08/06 09:41:09;;;;;;;3.63;1.20;;;;;;;;;;5095685;28;21011;-64
2022/08/06 09:43:37;;;;;;;1.30;1.20;;;;;;;;;;5095842;28;20436;-64
2022/08/06 09:46:04;;;;;;;1.40;1.00;;;;;;;;;;5095815;28;20952;-64
2022/08/06 09:48:32;;;;;;;3.63;1.20;;;;;;;;;;5096237;28;20527;-64
2022/08/06 09:51:01;;;;;;;1.30;1.20;;;;;;;;;;5095425;28;20458;-64
2022/08/06 09:53:28;;;;;;;1.73;1.20;;;;;;;;;;5096533;28;20836;-64
2022/08/06 09:55:56;;;;;;;2.00;1.30;;;;;;;;;;5095773;28;20454;-64
2022/08/06 09:58:35;;;;;;;1.30;1.13;;;;;;;;;;5095693;28;20878;-65
2022/08/06 10:01:15;;;;;;;1.30;1.20;;;;;;;;;;5095339;28;20480;-63
2022/08/06 10:03:43;;;;;;;2.40;1.40;;;;;;;;;;5095559;28;20454;-64
2022/08/06 10:06:12;;;;;;;2.10;1.23;;;;;;;;;;5095330;28;20440;-64
2022/08/06 10:08:39;;;;;;;1.70;1.60;;;;;;;;;;5095465;28;20456;-64
2022/08/06 10:11:07;;;;;;;1.70;1.17;;;;;;;;;;5095569;28;20527;-64
2022/08/06 10:13:35;;;;;;;1.63;1.27;;;;;;;;;;5095558;28;20450;-65
2022/08/06 10:16:15;;;;;;;1.23;1.10;;;;;;;;;;5094340;28;20501;-64
2022/08/06 10:18:43;;;;;;;1.40;1.10;;;;;;;;;;5095669;28;20472;-64
2022/08/06 10:21:13;;;;;;;2.40;1.30;;;;;;;;;;5094889;28;20568;-64
2022/08/06 10:23:42;;;;;;;1.37;1.23;;;;;;;;;;5095198;28;21008;-64
2022/08/06 10:26:10;;;;;;;1.10;1.00;;;;;;;;;;5095256;28;20456;-64
2022/08/06 10:28:38;;;;;;;3.00;1.13;;;;;;;;;;5095227;28;20444;-64
2022/08/06 10:31:06;;;;;;;1.97;1.30;;;;;;;;;;5095050;28;20452;-64
2022/08/06 10:33:34;;;;;;;1.40;1.30;;;;;;;;;;5095210;28;20442;-64
2022/08/06 10:36:04;;;;;;;1.67;1.20;;;;;;;;;;5094743;28;20529;-65
2022/08/06 10:38:35;;;;;;;1.50;1.40;;;;;;;;;;5095314;28;20757;-64
2022/08/06 10:41:05;;;;;;;1.30;1.20;;;;;;;;;;5094530;28;20465;-64
2022/08/06 10:43:32;;;;;;;1.50;1.40;;;;;;;;;;5094546;28;20541;-63
2022/08/06 10:45:59;;;;;;;1.20;1.10;;;;;;;;;;5094624;28;20533;-64
2022/08/06 10:48:27;;;;;;;1.37;1.10;;;;;;;;;;5095033;28;20819;-64
2022/08/06 10:50:54;;;;;;;3.07;1.87;;;;;;;;;;5094018;28;20948;-64
2022/08/06 10:53:22;;;;;;;8.10;2.03;;;;;;;;;;5094438;28;20541;-64
2022/08/06 10:55:51;;;;;;;2.50;1.10;;;;;;;;;;5094238;28;20469;-64
2022/08/06 10:58:18;;;;;;;3.50;1.20;;;;;;;;;;5094503;28;20528;-64
2022/08/06 11:00:45;;;;;;;2.03;1.10;;;;;;;;;;5094346;28;20479;-64
2022/08/06 11:03:17;;;;;;;2.67;2.43;;;;;;;;;;5093570;28;20533;-64
2022/08/06 11:05:45;;;;;;;3.47;3.03;;;;;;;;;;5094085;28;20512;-64
2022/08/06 11:08:21;;;;;;;1.43;1.20;;;;;;;;;;5094521;28;20537;-64
2022/08/06 11:11:00;;;;;;;2.80;1.60;;;;;;;;;;5094278;28;20447;-64
2022/08/06 11:13:31;;;;;;;1.50;1.10;;;;;;;;;;5094380;28;20434;-64
2022/08/06 11:15:58;;;;;;;1.27;1.00;;;;;;;;;;5093462;28;20643;-64
2022/08/06 11:18:26;;;;;;;1.20;1.00;;;;;;;;;;5093811;28;20464;-64
2022/08/06 11:20:54;;;;;;;2.20;1.13;;;;;;;;;;5093893;28;20823;-63
2022/08/06 11:23:25;;;;;;;1.40;1.07;;;;;;;;;;5093836;28;20468;-63
2022/08/06 11:25:54;;;;;;;1.73;1.17;;;;;;;;;;5093612;28;20946;-63
2022/08/06 11:28:42;;;;;;;1.53;1.10;;;;;;;;;;5093709;28;20537;-63
2022/08/06 11:31:30;;;;;;;1.83;1.50;;;;;;;;;;5094138;28;20464;-63
2022/08/06 11:34:01;;;;;;;2.93;1.07;;;;;;;;;;5094064;28;20840;-63
2022/08/06 11:36:29;;;;;;;3.73;3.43;;;;;;;;;;5093631;28;20442;-63
2022/08/06 11:39:00;;;;;;;3.30;1.63;;;;;;;;;;5093815;28;20461;-63
2022/08/06 11:41:28;;;;;;;1.20;1.10;;;;;;;;;;5093749;28;20489;-64
2022/08/06 11:44:07;;;;;;;1.57;1.10;;;;;;;;;;5094005;28;20842;-63
2022/08/06 11:46:38;;;;;;;1.50;1.00;;;;;;;;;;5093507;28;20967;-64
2022/08/06 11:49:20;;;;;;;2.40;1.10;;;;;;;;;;5093738;28;20428;-65
2022/08/06 11:51:48;;;;;;;1.87;1.20;;;;;;;;;;5093073;28;20447;-64
2022/08/06 11:54:17;;;;;;;1.30;1.13;;;;;;;;;;5093775;28;20452;-64
2022/08/06 11:57:04;;;;;;;1.20;1.10;;;;;;;;;;5093629;28;20528;-64
2022/08/06 11:59:33;;;;;;;1.50;1.20;;;;;;;;;;5093502;28;20464;-64
2022/08/06 12:02:01;;;;;;;2.20;1.10;;;;;;;;;;5092931;28;20475;-64
2022/08/06 12:04:42;;;;;;;2.07;1.20;;;;;;;;;;5093112;28;20932;-63
2022/08/06 12:07:15;;;;;;;4.87;1.00;;;;;;;;;;5093443;28;20449;-64
2022/08/06 12:09:43;;;;;;;1.43;1.20;;;;;;;;;;5093367;28;20438;-64
2022/08/06 12:12:28;;;;;;;1.37;1.27;;;;;;;;;;5093075;28;20538;-64
2022/08/06 12:14:57;;;;;;;2.60;1.10;;;;;;;;;;5095846;28;20431;-63
2022/08/06 12:17:25;;;;;;;2.17;1.20;;;;;;;;;;5097418;28;20474;-64
2022/08/06 12:19:54;;;;;;;3.13;1.20;;;;;;;;;;5097712;28;20528;-64
2022/08/06 12:22:22;;;;;;;1.40;1.30;;;;;;;;;;5097046;28;21009;-63
2022/08/06 12:24:50;;;;;;;7.23;1.57;;;;;;;;;;5098157;28;20530;-64
2022/08/06 12:27:18;;;;;;;4.67;1.20;;;;;;;;;;5097392;28;20524;-64
2022/08/06 12:29:45;;;;;;;2.00;1.13;;;;;;;;;;5097156;28;20932;-63
2022/08/06 12:32:23;;;;;;;3.23;1.23;;;;;;;;;;5097332;28;20536;-64
2022/08/06 12:34:51;;;;;;;2.30;1.20;;;;;;;;;;5097675;28;20435;-64
2022/08/06 12:37:18;;;;;;;3.67;1.13;;;;;;;;;;5096847;28;20534;-64
2022/08/06 12:42:31;;;;;;;1.30;1.20;;;;;;;;;;5096942;28;20493;-64
2022/08/06 12:44:58;;;;;;;1.50;1.40;;;;;;;;;;5097114;28;20881;-64
2022/08/06 12:47:27;;;;;;;1.90;1.30;;;;;;;;;;5096939;28;20441;-64
2022/08/06 12:49:54;;;;;;;1.27;1.17;;;;;;;;;;5096761;28;20447;-64
2022/08/06 12:52:22;;;;;;;1.57;1.47;;;;;;;;;;5096604;28;21007;-64
2022/08/06 12:54:49;;;;;;;3.63;3.27;;;;;;;;;;5096634;28;20806;-64
2022/08/06 12:57:23;;;;;;;1.13;1.03;;;;;;;;;;5096886;28;20453;-64
2022/08/06 12:59:51;;;;;;;4.70;1.17;;;;;;;;;;5097137;28;20510;-63
2022/08/06 13:02:20;;;;;;;1.83;1.57;;;;;;;;;;5096557;28;20478;-64
2022/08/06 13:04:51;;;;;;;1.27;1.17;;;;;;;;;;5096689;28;20443;-64
2022/08/06 13:07:19;;;;;;;2.13;1.23;;;;;;;;;;5097168;28;20438;-63
2022/08/06 13:09:47;;;;;;;4.03;1.27;;;;;;;;;;5096860;28;20497;-63
2022/08/06 13:12:16;;;;;;;7.70;1.70;;;;;;;;;;5096803;28;20503;-63
2022/08/06 13:14:53;;;;;;;1.27;1.17;;;;;;;;;;5096585;28;20435;-63
2022/08/06 13:17:22;;;;;;;3.67;1.10;;;;;;;;;;5096176;28;20829;-64
2022/08/06 13:19:53;;;;;;;1.93;1.20;;;;;;;;;;5096462;28;20436;-64
2022/08/06 13:22:21;;;;;;;1.50;1.20;;;;;;;;;;5096243;28;20597;-64
2022/08/06 13:24:48;;;;;;;1.27;1.10;;;;;;;;;;5095382;28;20459;-63
2022/08/06 13:27:16;;;;;;;1.30;1.20;;;;;;;;;;5096279;28;20424;-63
2022/08/06 13:30:03;;;;;;;4.30;1.17;;;;;;;;;;5096573;28;20447;-64
2022/08/06 13:32:30;;;;;;;1.40;1.10;;;;;;;;;;5095691;28;20451;-64
2022/08/06 13:34:59;;;;;;;1.20;1.10;;;;;;;;;;5096224;28;20471;-63
2022/08/06 13:37:43;;;;;;;1.77;1.17;;;;;;;;;;5095979;28;20794;-64
2022/08/06 13:40:10;;;;;;;1.37;1.13;;;;;;;;;;5096339;28;20435;-64
2022/08/06 13:42:49;;;;;;;2.53;1.30;;;;;;;;;;5095049;28;20523;-64
2022/08/06 13:45:24;;;;;;;2.17;1.40;;;;;;;;;;5095662;28;20511;-64
2022/08/06 13:47:52;;;;;;;3.73;1.30;;;;;;;;;;5095832;28;20952;-64
2022/08/06 13:50:21;;;;;;;1.27;1.07;;;;;;;;;;5095727;28;20445;-64
2022/08/06 13:52:48;;;;;;;2.87;1.53;;;;;;;;;;5095678;28;20523;-64
2022/08/06 13:55:23;;;;;;;2.13;1.23;;;;;;;;;;5095988;28;20540;-64
2022/08/06 13:57:50;;;;;;;2.07;1.67;;;;;;;;;;5095962;28;20419;-64
2022/08/06 14:00:18;;;;;;;4.73;1.53;;;;;;;;;;5094740;28;20512;-64
2022/08/06 14:02:45;;;;;;;2.20;1.50;;;;;;;;;;5094912;28;20508;-64
2022/08/06 14:05:12;;;;;;;2.30;1.20;;;;;;;;;;5095219;28;21014;-64
2022/08/06 14:07:41;;;;;;;1.43;1.33;;;;;;;;;;5095051;28;20448;-64
2022/08/06 14:10:09;;;;;;;3.40;1.60;;;;;;;;;;5094868;28;20470;-64
2022/08/06 14:12:36;;;;;;;1.80;1.30;;;;;;;;;;5094845;28;20529;-64
2022/08/06 14:15:04;;;;;;;2.03;1.17;;;;;;;;;;5095198;28;20529;-64
2022/08/06 14:17:31;;;;;;;2.20;1.20;;;;;;;;;;5094882;28;20466;-64
2022/08/06 14:19:58;;;;;;;2.50;1.40;;;;;;;;;;5095233;28;20469;-63
2022/08/06 14:22:25;;;;;;;1.87;1.30;;;;;;;;;;5094972;28;20478;-64
2022/08/06 14:24:54;;;;;;;3.80;1.50;;;;;;;;;;5095311;28;20442;-64
2022/08/06 14:27:22;;;;;;;2.47;1.23;;;;;;;;;;5094589;28;20534;-64
2022/08/06 14:29:49;;;;;;;1.50;1.40;;;;;;;;;;5094797;28;20457;-64
2022/08/06 14:32:16;;;;;;;3.50;1.63;;;;;;;;;;5094906;28;20881;-63
2022/08/06 14:34:46;;;;;;;1.93;1.50;;;;;;;;;;5094352;28;20441;-65
2022/08/06 14:37:13;;;;;;;2.00;1.30;;;;;;;;;;5093045;28;20548;-63
2022/08/06 14:39:40;;;;;;;1.30;1.20;;;;;;;;;;5094666;28;20432;-63
2022/08/06 14:44:57;;;;;;;1.67;1.30;;;;;;;;;;5094408;28;20577;-64
2022/08/06 14:47:24;;;;;;;1.80;1.60;;;;;;;;;;5094372;28;20433;-64
2022/08/06 14:49:51;;;;;;;2.20;1.13;;;;;;;;;;5093956;28;20542;-64
2022/08/06 14:52:19;;;;;;;1.30;1.20;;;;;;;;;;5094265;28;20528;-64
2022/08/06 14:54:46;;;;;;;1.40;1.30;;;;;;;;;;5094040;28;21012;-64
2022/08/06 14:57:14;;;;;;;2.33;1.77;;;;;;;;;;5094207;28;20442;-63
2022/08/06 14:59:42;;;;;;;4.47;4.00;;;;;;;;;;5094244;28;20534;-63
2022/08/06 15:02:09;;;;;;;3.80;1.87;;;;;;;;;;5093988;28;20563;-64
2022/08/06 15:04:36;;;;;;;2.40;1.90;;;;;;;;;;5094092;28;20527;-63